Seneffe, Belgium
Current Conditions -  °F | °C
As of 3:20 PM on Tuesday 27 Jan 2015 (Local Time) from EBCI Reporting Station
Scattered Clouds Scattered Clouds  
Wind Chill: 37°   Ceiling: Unl
Heat Index: 41°   Visibility: 6mi
Dew Point: 37°   Wind: 6mph
Humidity: 87%   Direction: 280°W
Pressure: 30.24"   Gusts: NA
Location:  50.53°N, 4.26°E
Report Text: EBCI 271420Z 28005KT 9999 SCT012 05/03 Q1024 NOSIG
Loading
Personal Weather Stations






























Interactive Weather Map New forecast layout! Learn more

10-Day Weather Forecast

Advertisements
Track Severe Weather on mobile